createdAt,value
2018-05-31T00:00:00.536Z,78.31
2018-05-31T00:02:33.543Z,77.99
2018-05-31T00:05:06.473Z,77.75
2018-05-31T00:07:39.630Z,77.48
2018-05-31T00:10:11.054Z,77.14
2018-05-31T00:12:43.977Z,77.27
2018-05-31T00:15:18.758Z,77.73
2018-05-31T00:17:50.348Z,77.42
2018-05-31T00:20:21.844Z,77.24
2018-05-31T00:22:56.784Z,77.52
2018-05-31T00:25:26.968Z,77.77
2018-05-31T00:27:58.959Z,77.97
2018-05-31T00:30:31.762Z,77.48
2018-05-31T00:33:05.040Z,77.54
2018-05-31T00:35:37.612Z,78.40
2018-05-31T00:38:10.788Z,78.40
2018-05-31T00:40:40.916Z,78.19
2018-05-31T00:43:12.405Z,78.23
2018-05-31T00:45:43.897Z,78.22
2018-05-31T00:48:15.613Z,78.08
2018-05-31T00:50:50.466Z,77.92
2018-05-31T00:53:24.963Z,77.91
2018-05-31T00:56:21.468Z,77.85
2018-05-31T00:58:56.328Z,78.01
2018-05-31T01:01:27.818Z,78.14
2018-05-31T01:04:00.966Z,79.39
2018-05-31T01:06:33.071Z,79.63
2018-05-31T01:09:04.916Z,78.91
2018-05-31T01:11:38.009Z,78.60
2018-05-31T01:14:09.627Z,79.82
2018-05-31T01:16:42.610Z,79.56
2018-05-31T01:19:15.570Z,79.22
2018-05-31T01:21:48.829Z,78.88
2018-05-31T01:24:21.759Z,78.56
2018-05-31T01:26:54.968Z,78.67
2018-05-31T01:29:29.671Z,79.50
2018-05-31T01:32:02.617Z,80.14
2018-05-31T01:34:34.997Z,80.29
2018-05-31T01:37:08.308Z,79.54
2018-05-31T01:39:38.854Z,79.97
2018-05-31T01:42:08.644Z,80.52
2018-05-31T01:44:43.035Z,81.82
2018-05-31T01:47:16.017Z,80.82
2018-05-31T01:49:47.638Z,80.41
2018-05-31T01:52:20.535Z,80.32
2018-05-31T01:54:53.598Z,79.92
2018-05-31T01:57:25.246Z,79.96
2018-05-31T01:59:58.504Z,80.37
2018-05-31T02:02:29.194Z,80.08
2018-05-31T02:05:02.017Z,79.47
2018-05-31T02:07:34.231Z,78.95
2018-05-31T02:10:07.496Z,79.99
2018-05-31T02:12:41.069Z,78.67
2018-05-31T02:15:12.793Z,80.06
2018-05-31T02:17:44.234Z,79.83
2018-05-31T02:20:16.660Z,79.57
2018-05-31T02:22:49.671Z,79.32
2018-05-31T02:25:22.319Z,79.75
2018-05-31T02:27:55.333Z,79.89
2018-05-31T02:30:29.927Z,81.14
2018-05-31T02:33:04.426Z,81.21
2018-05-31T02:35:36.128Z,81.05
2018-05-31T02:38:09.087Z,80.60
2018-05-31T02:40:40.603Z,80.45
2018-05-31T02:43:10.716Z,80.72
2018-05-31T02:45:42.701Z,80.03
2018-05-31T02:48:15.542Z,79.43
2018-05-31T02:50:45.705Z,79.50
2018-05-31T02:53:20.384Z,79.55
2018-05-31T02:55:51.384Z,79.24
2018-05-31T02:58:23.591Z,79.17
2018-05-31T03:00:55.329Z,78.85
2018-05-31T03:03:27.123Z,79.11
2018-05-31T03:05:56.899Z,78.90
2018-05-31T03:08:29.502Z,78.98
2018-05-31T03:11:02.699Z,79.54
2018-05-31T03:13:35.079Z,79.43
2018-05-31T03:16:07.558Z,78.98
2018-05-31T03:18:40.549Z,78.90
2018-05-31T03:21:15.087Z,78.56
2018-05-31T03:23:46.843Z,78.66
2018-05-31T03:26:20.339Z,78.88
2018-05-31T03:28:55.210Z,79.85
2018-05-31T03:31:28.415Z,80.50
2018-05-31T03:34:00.031Z,80.35
2018-05-31T03:36:33.315Z,79.73
2018-05-31T03:39:06.378Z,79.63
2018-05-31T03:41:39.284Z,80.05
2018-05-31T03:44:11.636Z,79.49
2018-05-31T03:46:44.743Z,78.79
2018-05-31T03:49:19.538Z,80.30
2018-05-31T03:51:51.185Z,80.89
2018-05-31T03:54:22.648Z,80.89
2018-05-31T03:56:54.318Z,78.34
2018-05-31T03:59:27.853Z,78.23
2018-05-31T04:01:58.847Z,78.61
2018-05-31T04:04:30.274Z,78.42
2018-05-31T04:07:03.506Z,77.63
2018-05-31T04:09:35.077Z,77.39
2018-05-31T04:12:08.379Z,76.78
2018-05-31T04:14:41.740Z,76.08
2018-05-31T04:17:14.857Z,75.37
2018-05-31T04:19:46.400Z,75.20
2018-05-31T04:22:20.780Z,74.73
2018-05-31T04:24:51.835Z,73.82
2018-05-31T04:27:25.125Z,72.83
2018-05-31T04:29:55.154Z,72.35
2018-05-31T04:32:29.822Z,72.17
2018-05-31T04:35:03.241Z,71.92
2018-05-31T04:37:35.239Z,72.26
2018-05-31T04:40:06.871Z,71.83
2018-05-31T04:42:39.932Z,72.17
2018-05-31T04:45:11.429Z,72.93
2018-05-31T04:47:42.877Z,73.41
2018-05-31T04:50:16.463Z,74.96
2018-05-31T04:52:47.915Z,75.71
2018-05-31T04:55:19.355Z,74.88
2018-05-31T04:57:49.640Z,74.98
2018-05-31T05:00:22.821Z,77.40
2018-05-31T05:02:54.524Z,76.34
2018-05-31T05:05:24.489Z,75.41
2018-05-31T05:07:56.010Z,75.36
2018-05-31T05:10:28.304Z,76.50
2018-05-31T05:13:02.736Z,76.94
2018-05-31T05:15:33.254Z,80.08
2018-05-31T05:18:06.615Z,78.49
2018-05-31T05:20:36.668Z,76.96
2018-05-31T05:23:08.497Z,76.27
2018-05-31T05:25:40.862Z,78.40
2018-05-31T05:28:13.784Z,78.11
2018-05-31T05:30:45.209Z,76.84
2018-05-31T05:33:15.270Z,76.08
2018-05-31T05:35:48.682Z,75.63
2018-05-31T05:38:23.266Z,73.46
2018-05-31T05:40:58.175Z,73.18
2018-05-31T05:43:30.052Z,73.54
2018-05-31T05:46:01.511Z,71.97
2018-05-31T05:48:34.809Z,70.39
2018-05-31T05:51:04.466Z,69.42
2018-05-31T05:53:35.872Z,64.85
2018-05-31T05:56:08.055Z,60.00
2018-05-31T05:58:39.577Z,58.65
2018-05-31T06:01:12.975Z,57.70
2018-05-31T06:03:44.874Z,55.82
2018-05-31T06:06:16.303Z,55.10
2018-05-31T06:08:49.066Z,53.46
2018-05-31T06:11:23.364Z,52.06
2018-05-31T06:13:54.813Z,51.48
2018-05-31T06:16:26.266Z,49.12
2018-05-31T06:18:57.624Z,49.01
2018-05-31T06:21:28.879Z,49.43
2018-05-31T06:23:58.775Z,51.91
2018-05-31T06:26:31.885Z,51.01
2018-05-31T06:29:03.353Z,52.53
2018-05-31T06:31:34.693Z,51.98
2018-05-31T06:34:06.057Z,51.23
2018-05-31T06:36:38.267Z,51.31
2018-05-31T06:39:09.546Z,50.33
2018-05-31T06:41:43.854Z,47.92
2018-05-31T06:44:14.162Z,46.42
2018-05-31T06:46:47.110Z,44.82
2018-05-31T06:49:18.481Z,45.08
2018-05-31T06:51:50.053Z,45.92
2018-05-31T06:54:21.427Z,45.25
2018-05-31T06:56:54.346Z,45.84
2018-05-31T06:59:27.511Z,46.78
2018-05-31T07:02:00.322Z,44.38
2018-05-31T07:04:33.124Z,42.76
2018-05-31T07:07:04.589Z,44.95
2018-05-31T07:09:35.990Z,43.99
2018-05-31T07:12:07.881Z,42.26
2018-05-31T07:14:40.633Z,43.61
2018-05-31T07:17:13.446Z,42.96
2018-05-31T07:19:46.254Z,43.63
2018-05-31T07:22:15.568Z,42.14
2018-05-31T07:24:50.244Z,40.06
2018-05-31T07:27:20.111Z,40.44
2018-05-31T07:29:52.907Z,44.20
2018-05-31T07:32:24.329Z,43.95
2018-05-31T07:34:55.692Z,47.27
2018-05-31T07:37:28.576Z,46.41
2018-05-31T07:39:58.388Z,45.77
2018-05-31T07:42:29.868Z,44.27
2018-05-31T07:44:59.748Z,45.79
2018-05-31T07:47:32.563Z,45.89
2018-05-31T07:50:05.321Z,48.31
2018-05-31T07:52:37.266Z,45.53
2018-05-31T07:55:06.892Z,45.25
2018-05-31T07:57:38.217Z,44.98
2018-05-31T08:00:10.850Z,43.06
2018-05-31T08:02:42.239Z,44.90
2018-05-31T08:05:15.612Z,44.63
2018-05-31T08:07:47.493Z,47.82
2018-05-31T08:10:17.330Z,48.54
2018-05-31T08:12:48.781Z,50.11
2018-05-31T08:15:20.484Z,50.51
2018-05-31T08:17:53.328Z,51.09
2018-05-31T08:20:27.782Z,53.26
2018-05-31T08:22:59.167Z,54.13
2018-05-31T08:25:32.562Z,54.57
2018-05-31T08:28:07.017Z,55.15
2018-05-31T08:30:39.149Z,56.17
2018-05-31T08:33:10.524Z,56.31
2018-05-31T08:35:42.596Z,57.21
2018-05-31T08:38:14.026Z,57.91
2018-05-31T08:40:44.942Z,58.08
2018-05-31T08:43:17.844Z,58.84
2018-05-31T08:45:50.714Z,59.63
2018-05-31T08:48:20.650Z,60.94
2018-05-31T08:50:55.079Z,61.45
2018-05-31T08:53:26.696Z,62.80
2018-05-31T08:56:01.225Z,62.82
2018-05-31T08:58:34.290Z,61.53
2018-05-31T09:01:07.426Z,62.66
2018-05-31T09:03:41.315Z,63.51
2018-05-31T09:06:12.792Z,61.78
2018-05-31T09:08:44.191Z,60.78
2018-05-31T09:11:16.041Z,61.38
2018-05-31T09:13:48.938Z,60.27
2018-05-31T09:16:20.203Z,59.77
2018-05-31T09:18:51.551Z,58.81
2018-05-31T09:21:22.967Z,58.30
2018-05-31T09:23:54.564Z,56.95
2018-05-31T09:26:27.486Z,56.89
2018-05-31T09:28:57.608Z,57.42
2018-05-31T09:31:28.549Z,56.32
2018-05-31T09:34:00.083Z,57.12
2018-05-31T09:36:33.114Z,56.69
2018-05-31T09:39:06.595Z,56.26
2018-05-31T09:41:38.150Z,58.09
2018-05-31T09:44:11.024Z,56.50
2018-05-31T09:46:44.818Z,55.83
2018-05-31T09:49:18.478Z,56.97
2018-05-31T09:51:49.911Z,56.84
2018-05-31T09:54:20.134Z,55.79
2018-05-31T09:56:51.519Z,56.36
2018-05-31T09:59:21.438Z,55.55
2018-05-31T10:01:54.371Z,55.17
2018-05-31T10:04:25.846Z,54.50
2018-05-31T10:06:58.740Z,53.92
2018-05-31T10:09:32.068Z,53.87
2018-05-31T10:12:03.471Z,54.11
2018-05-31T10:14:35.511Z,52.86
2018-05-31T10:17:05.556Z,53.73
2018-05-31T10:19:39.853Z,53.83
2018-05-31T10:22:12.853Z,52.94
2018-05-31T10:24:44.636Z,53.88
2018-05-31T10:27:17.577Z,55.37
2018-05-31T10:29:47.702Z,55.90
2018-05-31T10:32:22.249Z,55.41
2018-05-31T10:34:56.837Z,56.15
2018-05-31T10:37:28.316Z,56.48
2018-05-31T10:40:00.007Z,56.96
2018-05-31T10:42:34.400Z,55.30
2018-05-31T10:45:07.325Z,55.68
2018-05-31T10:47:41.355Z,56.53
2018-05-31T10:50:14.448Z,57.58
2018-05-31T10:52:47.626Z,58.36
2018-05-31T10:55:19.052Z,58.99
2018-05-31T10:57:52.653Z,57.96
2018-05-31T11:00:27.301Z,58.66
2018-05-31T11:02:58.756Z,60.60
2018-05-31T11:05:30.999Z,59.71
2018-05-31T11:08:02.461Z,60.64
2018-05-31T11:10:35.358Z,58.79
2018-05-31T11:13:06.795Z,59.71
2018-05-31T11:15:39.667Z,59.69
2018-05-31T11:18:12.372Z,60.06
2018-05-31T11:20:43.722Z,60.96
2018-05-31T11:23:16.941Z,61.63
2018-05-31T11:25:48.725Z,62.34
2018-05-31T11:28:22.032Z,60.91
2018-05-31T11:30:54.949Z,61.55
2018-05-31T11:33:26.308Z,62.37
2018-05-31T11:35:57.797Z,62.55
2018-05-31T11:38:31.002Z,63.77
2018-05-31T11:41:02.397Z,62.38
2018-05-31T11:43:36.266Z,62.73
2018-05-31T11:46:06.194Z,63.10
2018-05-31T11:48:39.226Z,62.12
2018-05-31T11:51:10.729Z,61.48
2018-05-31T11:53:45.281Z,61.51
2018-05-31T11:56:18.047Z,62.76
2018-05-31T11:58:51.027Z,62.65
2018-05-31T12:01:22.803Z,64.67
2018-05-31T12:03:55.890Z,63.33
2018-05-31T12:06:26.075Z,62.99
2018-05-31T12:08:59.079Z,62.10
2018-05-31T12:11:32.959Z,64.36
2018-05-31T12:14:04.472Z,64.48
2018-05-31T12:16:37.867Z,63.34
2018-05-31T12:19:10.907Z,63.13
2018-05-31T12:21:45.306Z,61.77
2018-05-31T12:24:17.151Z,61.16
2018-05-31T12:26:51.635Z,60.76
2018-05-31T12:29:23.386Z,61.69
2018-05-31T12:31:54.926Z,61.86
2018-05-31T12:34:26.826Z,62.13
2018-05-31T12:36:58.268Z,63.84
2018-05-31T12:39:29.618Z,60.50
2018-05-31T12:42:02.635Z,62.17
2018-05-31T12:44:35.823Z,60.69
2018-05-31T12:47:07.393Z,59.42
2018-05-31T12:49:39.294Z,58.16
2018-05-31T12:52:13.515Z,57.50
2018-05-31T12:54:46.326Z,57.08
2018-05-31T12:57:19.239Z,59.33
2018-05-31T12:59:53.496Z,60.20
2018-05-31T13:02:26.339Z,59.35
2018-05-31T13:04:57.757Z,55.72
2018-05-31T13:07:31.578Z,56.18
2018-05-31T13:10:03.056Z,53.45
2018-05-31T13:12:33.017Z,53.34
2018-05-31T13:15:03.019Z,52.75
2018-05-31T13:17:34.410Z,53.96
2018-05-31T13:20:04.361Z,55.69
2018-05-31T13:22:35.811Z,54.48
2018-05-31T13:25:10.242Z,56.99
2018-05-31T13:27:41.711Z,55.79
2018-05-31T13:30:13.259Z,56.46
2018-05-31T13:32:44.692Z,55.65
2018-05-31T13:35:18.065Z,57.46
2018-05-31T13:37:48.623Z,57.95
2018-05-31T13:40:18.551Z,57.80
2018-05-31T13:42:48.996Z,56.03
2018-05-31T13:45:21.039Z,57.36
2018-05-31T13:47:52.416Z,57.46
2018-05-31T13:50:23.145Z,57.17
2018-05-31T13:52:53.044Z,56.19
2018-05-31T13:55:24.489Z,54.57
2018-05-31T13:57:57.313Z,55.08
2018-05-31T14:00:30.311Z,56.52
2018-05-31T14:03:01.679Z,55.55
2018-05-31T14:05:34.815Z,56.83
2018-05-31T14:08:08.700Z,55.89
2018-05-31T14:10:41.576Z,55.60
2018-05-31T14:13:12.931Z,57.03
2018-05-31T14:15:47.592Z,57.18
2018-05-31T14:18:17.458Z,57.32
2018-05-31T14:20:50.727Z,56.66
2018-05-31T14:23:23.654Z,56.45
2018-05-31T14:25:53.466Z,59.02
2018-05-31T14:28:26.293Z,56.74
2018-05-31T14:30:57.701Z,55.76
2018-05-31T14:33:30.488Z,56.34
2018-05-31T14:36:02.010Z,56.47
2018-05-31T14:38:33.985Z,56.54
2018-05-31T14:41:07.462Z,58.77
2018-05-31T14:43:39.162Z,55.38
2018-05-31T14:46:10.541Z,56.44
2018-05-31T14:48:43.420Z,58.64
2018-05-31T14:51:17.764Z,57.96
2018-05-31T14:53:50.797Z,56.90
2018-05-31T14:56:23.688Z,55.32
2018-05-31T14:58:55.039Z,56.50
2018-05-31T15:01:28.613Z,59.18
2018-05-31T15:03:59.897Z,57.39
2018-05-31T15:06:32.742Z,56.27
2018-05-31T15:09:05.151Z,56.81
2018-05-31T15:11:37.978Z,57.41
2018-05-31T15:14:10.910Z,55.76
2018-05-31T15:16:42.963Z,55.72
2018-05-31T15:19:14.381Z,59.25
2018-05-31T15:21:46.169Z,59.13
2018-05-31T15:24:17.560Z,57.17
2018-05-31T15:26:49.060Z,59.52
2018-05-31T15:29:21.228Z,58.88
2018-05-31T15:31:52.969Z,59.01
2018-05-31T15:34:27.255Z,58.82
2018-05-31T15:36:58.638Z,59.27
2018-05-31T15:39:31.275Z,59.68
2018-05-31T15:42:04.206Z,60.54
2018-05-31T15:44:38.373Z,61.18
2018-05-31T15:47:11.215Z,62.50
2018-05-31T15:49:44.121Z,60.25
2018-05-31T15:52:17.663Z,62.79
2018-05-31T15:54:48.142Z,60.29
2018-05-31T15:57:19.871Z,61.77
2018-05-31T15:59:54.238Z,61.95
2018-05-31T16:02:27.113Z,62.50
2018-05-31T16:05:01.910Z,63.25
2018-05-31T16:07:33.408Z,62.48
2018-05-31T16:10:04.843Z,61.94
2018-05-31T16:12:37.681Z,62.56
2018-05-31T16:15:09.351Z,61.24
2018-05-31T16:17:39.278Z,62.21
2018-05-31T16:20:10.225Z,62.78
2018-05-31T16:22:44.551Z,63.36
2018-05-31T16:25:16.005Z,61.14
2018-05-31T16:27:48.991Z,60.25
2018-05-31T16:30:20.442Z,60.35
2018-05-31T16:32:51.796Z,61.90
2018-05-31T16:35:20.993Z,60.44
2018-05-31T16:37:53.944Z,61.04
2018-05-31T16:40:25.382Z,61.06
2018-05-31T16:42:59.127Z,60.76
2018-05-31T16:45:28.254Z,62.96
2018-05-31T16:48:01.142Z,61.08
2018-05-31T16:50:32.468Z,61.52
2018-05-31T16:53:05.441Z,61.01
2018-05-31T16:55:38.330Z,60.86
2018-05-31T16:58:09.791Z,59.65
2018-05-31T17:00:44.166Z,58.71
2018-05-31T17:03:14.042Z,58.41
2018-05-31T17:05:47.211Z,59.96
2018-05-31T17:08:20.133Z,58.79
2018-05-31T17:10:54.526Z,58.75
2018-05-31T17:13:26.040Z,58.03
2018-05-31T17:15:57.570Z,58.08
2018-05-31T17:18:30.587Z,57.52
2018-05-31T17:21:02.056Z,60.34
2018-05-31T17:23:34.955Z,58.97
2018-05-31T17:26:06.374Z,57.99
2018-05-31T17:28:37.664Z,58.46
2018-05-31T17:31:09.659Z,59.68
2018-05-31T17:33:39.860Z,58.17
2018-05-31T17:36:12.769Z,61.15
2018-05-31T17:38:45.626Z,59.62
2018-05-31T17:41:17.092Z,59.19
2018-05-31T17:43:51.494Z,60.23
2018-05-31T17:46:23.349Z,58.86
2018-05-31T17:48:54.774Z,59.25
2018-05-31T17:51:27.953Z,59.14
2018-05-31T17:54:00.831Z,60.55
2018-05-31T17:56:34.606Z,59.68
2018-05-31T17:59:04.506Z,60.43
2018-05-31T18:01:34.435Z,61.76
2018-05-31T18:04:05.971Z,61.95
2018-05-31T18:06:35.892Z,61.85
2018-05-31T18:09:09.940Z,62.44
2018-05-31T18:11:44.195Z,62.24
2018-05-31T18:14:17.004Z,62.74
2018-05-31T18:16:47.059Z,63.38
2018-05-31T18:19:18.511Z,62.55
2018-05-31T18:21:50.315Z,63.54
2018-05-31T18:24:22.293Z,63.87
2018-05-31T18:26:56.678Z,63.26
2018-05-31T18:29:30.214Z,62.25
2018-05-31T18:32:03.150Z,62.65
2018-05-31T18:34:37.664Z,62.76
2018-05-31T18:37:11.483Z,63.38
2018-05-31T18:39:44.316Z,64.08
2018-05-31T18:42:15.619Z,64.29
2018-05-31T18:44:47.179Z,64.33
2018-05-31T18:47:21.676Z,64.55
2018-05-31T18:49:56.093Z,64.19
2018-05-31T18:52:27.637Z,64.75
2018-05-31T18:55:00.178Z,64.75
2018-05-31T18:57:35.993Z,65.13
2018-05-31T19:00:07.471Z,64.84
2018-05-31T19:02:41.846Z,65.94
2018-05-31T19:05:13.376Z,66.61
2018-05-31T19:07:47.776Z,66.29
2018-05-31T19:10:19.159Z,66.14
2018-05-31T19:13:09.836Z,66.00
2018-05-31T19:15:41.263Z,66.58
2018-05-31T19:18:33.109Z,66.93
2018-05-31T19:21:06.057Z,66.88
2018-05-31T19:23:40.454Z,67.02
2018-05-31T19:26:13.449Z,67.11
2018-05-31T19:28:46.585Z,68.30
2018-05-31T19:31:18.248Z,68.89
2018-05-31T19:33:50.041Z,67.88
2018-05-31T19:36:40.427Z,68.84
2018-05-31T19:39:14.816Z,70.28
2018-05-31T19:41:49.267Z,70.73
2018-05-31T19:44:40.665Z,70.76
2018-05-31T19:47:13.843Z,71.32
2018-05-31T19:49:47.117Z,71.47
2018-05-31T19:52:39.087Z,71.48
2018-05-31T19:55:11.475Z,71.47
2018-05-31T19:58:00.342Z,72.05
2018-05-31T20:00:53.398Z,72.13
2018-05-31T20:03:34.431Z,72.19
2018-05-31T20:06:06.090Z,71.21
2018-05-31T20:08:35.991Z,71.39
2018-05-31T20:11:09.264Z,71.78
2018-05-31T20:13:40.943Z,71.46
2018-05-31T20:16:13.868Z,71.61
2018-05-31T20:18:47.113Z,71.82
2018-05-31T20:21:20.581Z,71.60
2018-05-31T20:23:55.056Z,71.28
2018-05-31T20:26:28.040Z,70.02
2018-05-31T20:29:01.463Z,70.00
2018-05-31T20:31:36.079Z,69.89
2018-05-31T20:34:07.748Z,71.64
2018-05-31T20:36:42.077Z,71.21
2018-05-31T20:39:15.800Z,71.52
2018-05-31T20:41:50.542Z,71.83
2018-05-31T20:44:22.058Z,72.54
2018-05-31T20:46:54.972Z,73.50
2018-05-31T20:49:26.693Z,73.21
2018-05-31T20:51:58.078Z,73.03
2018-05-31T20:54:28.853Z,72.77
2018-05-31T20:57:02.012Z,72.67
2018-05-31T20:59:33.567Z,72.70
2018-05-31T21:02:04.252Z,72.87
2018-05-31T21:04:37.505Z,73.21
2018-05-31T21:07:10.583Z,74.28
2018-05-31T21:09:44.933Z,74.23
2018-05-31T21:12:16.374Z,74.28
2018-05-31T21:14:49.248Z,74.46
2018-05-31T21:17:20.739Z,74.41
2018-05-31T21:19:50.729Z,75.15
2018-05-31T21:22:22.583Z,73.91
2018-05-31T21:24:54.005Z,73.92
2018-05-31T21:27:25.960Z,74.05
2018-05-31T21:30:00.227Z,74.12
2018-05-31T21:32:33.464Z,73.76
2018-05-31T21:35:03.665Z,74.98
2018-05-31T21:37:36.861Z,75.42
2018-05-31T21:40:11.596Z,75.06
2018-05-31T21:42:41.581Z,75.49
2018-05-31T21:45:15.981Z,75.22
2018-05-31T21:47:50.424Z,75.12
2018-05-31T21:50:21.934Z,75.69
2018-05-31T21:52:56.552Z,76.29
2018-05-31T21:55:29.415Z,76.18
2018-05-31T21:58:02.563Z,76.29
2018-05-31T22:00:54.008Z,75.59
2018-05-31T22:03:26.358Z,75.54
2018-05-31T22:05:59.356Z,75.83
2018-05-31T22:08:30.958Z,75.75
2018-05-31T22:11:03.879Z,75.59
2018-05-31T22:13:38.882Z,75.60
2018-05-31T22:16:10.662Z,76.54
2018-05-31T22:18:42.028Z,76.38
2018-05-31T22:21:16.435Z,75.68
2018-05-31T22:23:50.356Z,75.87
2018-05-31T22:26:25.081Z,75.99
2018-05-31T22:28:56.656Z,76.99
2018-05-31T22:31:31.034Z,76.00
2018-05-31T22:34:02.579Z,76.39
2018-05-31T22:36:35.815Z,75.59
2018-05-31T22:39:07.247Z,76.33
2018-05-31T22:41:40.505Z,76.84
2018-05-31T22:44:14.045Z,76.42
2018-05-31T22:46:47.143Z,75.91
2018-05-31T22:49:19.330Z,76.43
2018-05-31T22:51:52.610Z,76.42
2018-05-31T22:54:24.889Z,76.44
2018-05-31T22:56:58.300Z,76.93
2018-05-31T22:59:31.511Z,77.52
2018-05-31T23:02:03.057Z,78.24
2018-05-31T23:04:38.020Z,76.98
2018-05-31T23:07:11.022Z,78.14
2018-05-31T23:09:41.001Z,78.24
2018-05-31T23:12:13.174Z,77.79
2018-05-31T23:14:46.206Z,77.45
2018-05-31T23:17:19.138Z,79.81
2018-05-31T23:19:53.694Z,77.87
2018-05-31T23:22:23.698Z,78.31
2018-05-31T23:24:53.106Z,77.91
2018-05-31T23:27:26.241Z,79.09
2018-05-31T23:29:59.317Z,80.17
2018-05-31T23:32:29.460Z,80.65
2018-05-31T23:35:00.972Z,81.58
2018-05-31T23:37:34.185Z,80.31
2018-05-31T23:40:06.030Z,78.96
2018-05-31T23:42:39.264Z,78.99
2018-05-31T23:45:12.458Z,78.21
2018-05-31T23:47:44.430Z,77.95
2018-05-31T23:50:17.898Z,79.00
2018-05-31T23:52:51.244Z,78.73
2018-05-31T23:55:25.750Z,77.88
2018-05-31T23:58:00.265Z,77.69
